Kristy Dutsch — WDC9005 — position and weather

sailwx.info

Track history (hours):
 
Tides and Currents Weather Stations Pressure Air Temp Water Temp Dewpoint Dewpoint Depression Visibility Wind Speed Wind Dir Waves Ship Positions

Kristy Dutsch

Owner: Florida Marine, LLC, Mandeville, LA. More information available from US FCC via Universal Licensing System and Coast Guard Vessel Documentation Center.

Last reported at 2017-Nov-19 17:05 UTC. Time now 2017-Nov-23 03:59 UTC.
Position N 30°04' W 093°32'.

Length 26 m; draft 2.8 m.

Type: Other ship. MMSI: 367096290.

Date/timePositionNaut miles runAvg speedWind from/ knotsBaromVisibWave heightAir tempDewpointWater temp
2017-Nov-19 17:05N 30°04' W 093°32'1 5.5
2017-Nov-19 16:59N 30°04' W 093°32'3 5.5
2017-Nov-19 16:30N 30°04' W 093°29'3 5.5
2017-Nov-19 16:00N 30°04' W 093°25'3 5.5
2017-Nov-19 15:30N 30°04' W 093°22'2 4.1
2017-Nov-19 15:00N 30°05' W 093°20'3 5.4
2017-Nov-19 14:30N 30°07' W 093°20'2 4.5
2017-Nov-19 14:00N 30°10' W 093°19'0 0.0
2017-Nov-19 13:30N 30°10' W 093°19'0 0.0
2017-Nov-19 13:00N 30°10' W 093°19'0 0.0
2017-Nov-19 12:30N 30°10' W 093°19'0 0.0
2017-Nov-19 12:00N 30°10' W 093°19'0 0.0
2017-Nov-19 11:30N 30°10' W 093°19'0 0.0
2017-Nov-19 11:00N 30°10' W 093°19'0 0.0
2017-Nov-19 10:30N 30°10' W 093°19'0 0.0
2017-Nov-19 10:00N 30°10' W 093°19'0 0.0
2017-Nov-19 09:30N 30°10' W 093°19'0 0.0
2017-Nov-19 09:00N 30°10' W 093°19'0 0.0
2017-Nov-19 08:30N 30°10' W 093°19'0 0.0
2017-Nov-19 08:00N 30°10' W 093°19'0 0.0
2017-Nov-19 07:30N 30°10' W 093°19'0 0.0
2017-Nov-19 07:00N 30°10' W 093°19'0 0.0
2017-Nov-19 06:30N 30°10' W 093°19'0 0.0
2017-Nov-19 06:00N 30°10' W 093°19'0 0.0
2017-Nov-19 05:30N 30°10' W 093°19'0 0.0
2017-Nov-19 05:00N 30°10' W 093°19'0 0.0
2017-Nov-19 04:30N 30°10' W 093°19'0 0.0
2017-Nov-19 04:00N 30°10' W 093°19'0 0.0
2017-Nov-19 03:30N 30°10' W 093°19'0 0.0
2017-Nov-19 03:00N 30°10' W 093°19'0 0.0
2017-Nov-19 02:30N 30°10' W 093°19'0 0.0
2017-Nov-19 02:00N 30°10' W 093°19'0 0.0
2017-Nov-19 01:30N 30°10' W 093°19'0 0.0
2017-Nov-19 01:00N 30°10' W 093°19'0 0.0
2017-Nov-19 00:30N 30°10' W 093°19'0 0.0
2017-Nov-19 00:00N 30°10' W 093°19'0 0.0
2017-Nov-18 23:30N 30°10' W 093°19'0 0.0
2017-Nov-18 23:00N 30°10' W 093°19'0 0.0
2017-Nov-18 22:30N 30°10' W 093°19'0 0.0
2017-Nov-18 22:00N 30°10' W 093°19'0 0.0
2017-Nov-18 21:30N 30°10' W 093°19'0 0.0
2017-Nov-18 21:00N 30°10' W 093°19'0 0.0
2017-Nov-18 20:30N 30°10' W 093°19'0 0.0
2017-Nov-18 20:00N 30°10' W 093°19'0 0.0
2017-Nov-18 19:30N 30°10' W 093°19'0 0.0
2017-Nov-18 19:00N 30°10' W 093°19'0 0.0
2017-Nov-18 18:30N 30°10' W 093°19'0 0.0
2017-Nov-18 18:00N 30°10' W 093°19'0 0.0
2017-Nov-18 17:30N 30°10' W 093°19'0 0.0
2017-Nov-18 17:00N 30°10' W 093°19'1 2.9
2017-Nov-18 16:30N 30°08' W 093°20'2 3.8
2017-Nov-18 16:00N 30°06' W 093°20'1 2.9
2017-Nov-18 15:30N 30°05' W 093°20'0 0.1
2017-Nov-18 15:00N 30°05' W 093°20'0 0.0
2017-Nov-18 14:30N 30°05' W 093°20'0 0.0
2017-Nov-18 14:00N 30°05' W 093°20'0 0.0
2017-Nov-18 13:30N 30°05' W 093°20'0 0.0
2017-Nov-18 13:00N 30°05' W 093°20'0 0.0
2017-Nov-18 12:30N 30°05' W 093°20'0 0.0
2017-Nov-18 12:00N 30°05' W 093°20'0 0.0
2017-Nov-18 11:30N 30°05' W 093°20'0 0.0
2017-Nov-18 11:00N 30°05' W 093°20'0 0.0
2017-Nov-18 10:30N 30°05' W 093°20'0 0.0
2017-Nov-18 10:00N 30°05' W 093°20'0 0.0
2017-Nov-18 09:30N 30°05' W 093°20'0 0.0
2017-Nov-18 09:00N 30°05' W 093°20'0 0.0
2017-Nov-18 08:30N 30°05' W 093°20'0 0.0
2017-Nov-18 08:00N 30°05' W 093°20'0 0.0
2017-Nov-18 07:30N 30°05' W 093°20'0 0.0
2017-Nov-18 07:00N 30°05' W 093°20'0 0.0
2017-Nov-18 06:30N 30°05' W 093°20'0 0.0
2017-Nov-18 06:00N 30°05' W 093°20'0 0.0
2017-Nov-18 05:30N 30°05' W 093°20'0 0.0
2017-Nov-18 05:00N 30°05' W 093°20'0 0.0
2017-Nov-18 04:30N 30°05' W 093°20'0 0.0
2017-Nov-18 04:00N 30°05' W 093°20'0 0.0
2017-Nov-18 03:30N 30°05' W 093°20'0 0.0
2017-Nov-18 03:00N 30°05' W 093°20'0 0.0
2017-Nov-18 02:30N 30°05' W 093°20'0 0.0
2017-Nov-18 02:00N 30°05' W 093°20'0 0.0
2017-Nov-18 01:30N 30°05' W 093°20'0 0.0
2017-Nov-18 01:00N 30°05' W 093°20'0 0.0
2017-Nov-18 00:30N 30°05' W 093°20'0 0.0
2017-Nov-18 00:00N 30°05' W 093°20'0 0.0
2017-Nov-17 23:30N 30°05' W 093°20'0 0.0
2017-Nov-17 23:00N 30°05' W 093°20'0 0.6
2017-Nov-17 22:30N 30°05' W 093°20'0 0.0
2017-Nov-17 22:00N 30°05' W 093°20'0 0.6
2017-Nov-17 21:30N 30°05' W 093°20'0 0.0
2017-Nov-17 21:00N 30°05' W 093°20'0 0.0
2017-Nov-17 20:30N 30°05' W 093°20'0 0.0
2017-Nov-17 20:00N 30°05' W 093°20'0 0.0
2017-Nov-17 19:30N 30°05' W 093°20'0 0.0
2017-Nov-17 19:00N 30°05' W 093°20'0 0.0
2017-Nov-17 18:30N 30°05' W 093°20'0 0.0
2017-Nov-17 18:00N 30°05' W 093°20'0 0.0
2017-Nov-17 17:30N 30°05' W 093°20'0 0.0
2017-Nov-17 17:00N 30°05' W 093°20'0 0.0
2017-Nov-17 16:30N 30°05' W 093°20'0 0.0
2017-Nov-17 16:00N 30°05' W 093°20'0 0.0
2017-Nov-17 15:30N 30°05' W 093°20'0 0.0
2017-Nov-17 15:00N 30°05' W 093°20'0 0.0
2017-Nov-17 14:30N 30°05' W 093°20'0 0.0
2017-Nov-17 14:00N 30°05' W 093°20'0 0.0
2017-Nov-17 13:30N 30°05' W 093°20'0 0.0
2017-Nov-17 13:00N 30°05' W 093°20'0 0.0
2017-Nov-17 12:30N 30°05' W 093°20'0 0.0
2017-Nov-17 12:00N 30°05' W 093°20'0 0.0
2017-Nov-17 11:30N 30°05' W 093°20'0 0.0
2017-Nov-17 11:00N 30°05' W 093°20'0 0.0
2017-Nov-17 10:30N 30°05' W 093°20'0 0.0
2017-Nov-17 10:00N 30°05' W 093°20'0 0.0
2017-Nov-17 09:30N 30°05' W 093°20'0 0.0
2017-Nov-17 09:00N 30°05' W 093°20'0 0.0
2017-Nov-17 08:30N 30°05' W 093°20'0 0.0
2017-Nov-17 08:00N 30°05' W 093°20'0 0.0
2017-Nov-17 07:30N 30°05' W 093°20'0 0.0
2017-Nov-17 07:00N 30°05' W 093°20'0 0.0
2017-Nov-17 06:30N 30°05' W 093°20'0 0.0
2017-Nov-17 06:00N 30°05' W 093°20'0 0.0
2017-Nov-17 05:30N 30°05' W 093°20'0 0.0
2017-Nov-17 05:00N 30°05' W 093°20'0 0.0
2017-Nov-17 04:30N 30°05' W 093°20'0 0.0
2017-Nov-17 04:00N 30°05' W 093°20'0 0.0
2017-Nov-17 03:30N 30°05' W 093°20'0 0.0
2017-Nov-17 03:00N 30°05' W 093°20'0 0.0
2017-Nov-17 02:30N 30°05' W 093°20'0 0.0
2017-Nov-17 02:00N 30°05' W 093°20'0 0.0
2017-Nov-17 01:30N 30°05' W 093°20'0 0.0
2017-Nov-17 01:00N 30°05' W 093°20'0 0.0
2017-Nov-17 00:30N 30°05' W 093°20'0 0.0
2017-Nov-17 00:00N 30°05' W 093°20'0 0.0
2017-Nov-16 23:30N 30°05' W 093°20'0 0.0
2017-Nov-16 23:00N 30°05' W 093°20'0 0.0
2017-Nov-16 22:30N 30°05' W 093°20'0 0.0
2017-Nov-16 22:00N 30°05' W 093°20'0 0.0
2017-Nov-16 21:30N 30°05' W 093°20'0 0.0
2017-Nov-16 21:00N 30°05' W 093°20'0 0.0
2017-Nov-16 20:30N 30°05' W 093°20'0 0.0
2017-Nov-16 20:00N 30°05' W 093°20'0 0.0
2017-Nov-16 19:30N 30°05' W 093°20'0 0.0
2017-Nov-16 19:00N 30°05' W 093°20'0 0.0
2017-Nov-16 18:30N 30°05' W 093°20'0 0.0
2017-Nov-16 18:00N 30°05' W 093°20'0 0.0
2017-Nov-16 17:30N 30°05' W 093°20'0 0.0
2017-Nov-16 17:00N 30°05' W 093°20'0 0.0
2017-Nov-16 16:30N 30°05' W 093°20'0 0.0
2017-Nov-16 16:00N 30°05' W 093°20'0 0.0
2017-Nov-16 15:30N 30°05' W 093°20'0 0.0
2017-Nov-16 15:00N 30°05' W 093°20'0 0.0
2017-Nov-16 14:30N 30°05' W 093°20'0 0.0
2017-Nov-16 14:00N 30°05' W 093°20'0 0.0
2017-Nov-16 13:30N 30°05' W 093°20'0 0.0
2017-Nov-16 13:00N 30°05' W 093°20'0 0.0
2017-Nov-16 12:30N 30°05' W 093°20'0 0.0
2017-Nov-16 12:00N 30°05' W 093°20'0 0.0
2017-Nov-16 11:30N 30°05' W 093°20'0 0.0
2017-Nov-16 11:00N 30°05' W 093°20'0 0.0
2017-Nov-16 10:30N 30°05' W 093°20'0 0.0
2017-Nov-16 10:00N 30°05' W 093°20'0 0.0
2017-Nov-16 09:30N 30°05' W 093°20'0 0.0
2017-Nov-16 09:00N 30°05' W 093°20'0 0.0
2017-Nov-16 08:30N 30°05' W 093°20'0 0.0
2017-Nov-16 08:00N 30°05' W 093°20'0 0.0
2017-Nov-16 07:30N 30°05' W 093°20'0 0.0
2017-Nov-16 07:00N 30°05' W 093°20'0 0.0
2017-Nov-16 06:30N 30°05' W 093°20'0 0.0
2017-Nov-16 06:00N 30°05' W 093°20'0 0.0
2017-Nov-16 05:30N 30°05' W 093°20'0 0.0
2017-Nov-16 05:00N 30°05' W 093°20'0 0.5
2017-Nov-16 04:30N 30°05' W 093°20'0 0.5
2017-Nov-16 04:00N 30°05' W 093°20'0 0.1
2017-Nov-16 03:30N 30°05' W 093°20'0 0.0
2017-Nov-16 03:00N 30°05' W 093°20'0 0.0
2017-Nov-16 02:30N 30°05' W 093°20'0 0.0
2017-Nov-16 02:00N 30°05' W 093°20'0 0.0
2017-Nov-16 01:30N 30°05' W 093°20'0 0.0
2017-Nov-16 01:00N 30°05' W 093°20'0 0.0
2017-Nov-16 00:30N 30°05' W 093°20'1 2.7
2017-Nov-16 00:00N 30°06' W 093°19'0 0.6
2017-Nov-15 23:30N 30°06' W 093°19'0 0.1
2017-Nov-15 23:00N 30°06' W 093°19'2 3.8
2017-Nov-15 22:30N 30°05' W 093°20'2 3.5
2017-Nov-15 22:00N 30°04' W 093°22'2 4.2
2017-Nov-15 21:30N 30°04' W 093°24'1 1.7
2017-Nov-15 21:00N 30°04' W 093°25'2 3.1
2017-Nov-15 20:30N 30°04' W 093°27'2 4.7
2017-Nov-15 20:00N 30°04' W 093°30'3 5.1
2017-Nov-15 19:30N 30°04' W 093°33'3 5.2
2017-Nov-15 18:59N 30°04' W 093°36'3 4.9
2017-Nov-15 18:28N 30°04' W 093°39'12 4.7
2017-Nov-15 15:49N 29°58' W 093°51'2 4.2
2017-Nov-15 15:25N 29°56' W 093°52'  
2017-Nov-13 01:04N 30°00' W 093°14'0 5.7
2017-Nov-13 00:59N 30°00' W 093°14'4 6.1
2017-Nov-13 00:15N 29°57' W 093°10'1 3.5
2017-Nov-12 23:59N 29°56' W 093°09'3 4.8
2017-Nov-12 23:25N 29°56' W 093°06'39 5.8
2017-Nov-12 16:45N 29°51' W 092°22'1 5.3
2017-Nov-12 16:30N 29°51' W 092°20'3 5.8
2017-Nov-12 16:00N 29°49' W 092°17'3 5.8
2017-Nov-12 15:30N 29°48' W 092°14'2 4.9
2017-Nov-12 15:00N 29°47' W 092°12'1 1.3
2017-Nov-12 14:28N 29°47' W 092°11'0 0.0
2017-Nov-12 13:56N 29°47' W 092°11'0 0.0
2017-Nov-12 13:28N 29°47' W 092°11'0 0.0
2017-Nov-12 13:00N 29°47' W 092°11'0 0.0
2017-Nov-12 12:30N 29°47' W 092°11'0 0.0
2017-Nov-12 11:54N 29°47' W 092°11'0 0.1
2017-Nov-12 10:43N 29°47' W 092°11'1 5.3
2017-Nov-12 10:29N 29°47' W 092°10'3 6.0
2017-Nov-12 09:59N 29°48' W 092°06'3 5.9
2017-Nov-12 09:29N 29°49' W 092°03'3 6.2
2017-Nov-12 08:59N 29°50' W 091°60'57 3.5
2017-Nov-11 16:40N 29°34' W 090°56'2 6.4
2017-Nov-11 16:19N 29°33' W 090°54'3 6.3
2017-Nov-11 15:50N 29°32' W 090°50'2 6.5
2017-Nov-11 15:30N 29°32' W 090°48'3 5.3
2017-Nov-11 15:00N 29°33' W 090°45'2 4.5
2017-Nov-11 14:30N 29°35' W 090°43'2 4.1
2017-Nov-11 14:00N 29°37' W 090°42'2 4.5
2017-Nov-11 13:30N 29°36' W 090°40'2 3.6
2017-Nov-11 13:00N 29°35' W 090°38'2 4.2
2017-Nov-11 12:30N 29°35' W 090°36'3 6.1
2017-Nov-11 12:00N 29°34' W 090°32'3 6.4
2017-Nov-11 11:30N 29°34' W 090°29'  
Track history (hours):
 
Tides and Currents Weather Stations Pressure Air Temp Water Temp Dewpoint Dewpoint Depression Visibility Wind Speed Wind Dir Waves Ship Positions

Kristy Dutsch

Owner: Florida Marine, LLC, Mandeville, LA. More information available from US FCC via Universal Licensing System and Coast Guard Vessel Documentation Center.

Last reported at 2017-Nov-19 17:05 UTC. Time now 2017-Nov-23 03:59 UTC.
Position N 30°04' W 093°32'.

Length 26 m; draft 2.8 m.

Type: Other ship. MMSI: 367096290.

Date/timePositionNaut miles runAvg speedWind from/ knotsBaromVisibWave heightAir tempDewpointWater temp
2017-Nov-19 17:05N 30°04' W 093°32'1 5.5
2017-Nov-19 16:59N 30°04' W 093°32'3 5.5
2017-Nov-19 16:30N 30°04' W 093°29'3 5.5
2017-Nov-19 16:00N 30°04' W 093°25'3 5.5
2017-Nov-19 15:30N 30°04' W 093°22'2 4.1
2017-Nov-19 15:00N 30°05' W 093°20'3 5.4
2017-Nov-19 14:30N 30°07' W 093°20'2 4.5
2017-Nov-19 14:00N 30°10' W 093°19'0 0.0
2017-Nov-19 13:30N 30°10' W 093°19'0 0.0
2017-Nov-19 13:00N 30°10' W 093°19'0 0.0
2017-Nov-19 12:30N 30°10' W 093°19'0 0.0
2017-Nov-19 12:00N 30°10' W 093°19'0 0.0
2017-Nov-19 11:30N 30°10' W 093°19'0 0.0
2017-Nov-19 11:00N 30°10' W 093°19'0 0.0
2017-Nov-19 10:30N 30°10' W 093°19'0 0.0
2017-Nov-19 10:00N 30°10' W 093°19'0 0.0
2017-Nov-19 09:30N 30°10' W 093°19'0 0.0
2017-Nov-19 09:00N 30°10' W 093°19'0 0.0
2017-Nov-19 08:30N 30°10' W 093°19'0 0.0
2017-Nov-19 08:00N 30°10' W 093°19'0 0.0
2017-Nov-19 07:30N 30°10' W 093°19'0 0.0
2017-Nov-19 07:00N 30°10' W 093°19'0 0.0
2017-Nov-19 06:30N 30°10' W 093°19'0 0.0
2017-Nov-19 06:00N 30°10' W 093°19'0 0.0
2017-Nov-19 05:30N 30°10' W 093°19'0 0.0
2017-Nov-19 05:00N 30°10' W 093°19'0 0.0
2017-Nov-19 04:30N 30°10' W 093°19'0 0.0
2017-Nov-19 04:00N 30°10' W 093°19'0 0.0
2017-Nov-19 03:30N 30°10' W 093°19'0 0.0
2017-Nov-19 03:00N 30°10' W 093°19'0 0.0
2017-Nov-19 02:30N 30°10' W 093°19'0 0.0
2017-Nov-19 02:00N 30°10' W 093°19'0 0.0
2017-Nov-19 01:30N 30°10' W 093°19'0 0.0
2017-Nov-19 01:00N 30°10' W 093°19'0 0.0
2017-Nov-19 00:30N 30°10' W 093°19'0 0.0
2017-Nov-19 00:00N 30°10' W 093°19'0 0.0
2017-Nov-18 23:30N 30°10' W 093°19'0 0.0
2017-Nov-18 23:00N 30°10' W 093°19'0 0.0
2017-Nov-18 22:30N 30°10' W 093°19'0 0.0
2017-Nov-18 22:00N 30°10' W 093°19'0 0.0
2017-Nov-18 21:30N 30°10' W 093°19'0 0.0
2017-Nov-18 21:00N 30°10' W 093°19'0 0.0
2017-Nov-18 20:30N 30°10' W 093°19'0 0.0
2017-Nov-18 20:00N 30°10' W 093°19'0 0.0
2017-Nov-18 19:30N 30°10' W 093°19'0 0.0
2017-Nov-18 19:00N 30°10' W 093°19'0 0.0
2017-Nov-18 18:30N 30°10' W 093°19'0 0.0
2017-Nov-18 18:00N 30°10' W 093°19'0 0.0
2017-Nov-18 17:30N 30°10' W 093°19'0 0.0
2017-Nov-18 17:00N 30°10' W 093°19'1 2.9
2017-Nov-18 16:30N 30°08' W 093°20'2 3.8
2017-Nov-18 16:00N 30°06' W 093°20'1 2.9
2017-Nov-18 15:30N 30°05' W 093°20'0 0.1
2017-Nov-18 15:00N 30°05' W 093°20'0 0.0
2017-Nov-18 14:30N 30°05' W 093°20'0 0.0
2017-Nov-18 14:00N 30°05' W 093°20'0 0.0
2017-Nov-18 13:30N 30°05' W 093°20'0 0.0
2017-Nov-18 13:00N 30°05' W 093°20'0 0.0
2017-Nov-18 12:30N 30°05' W 093°20'0 0.0
2017-Nov-18 12:00N 30°05' W 093°20'0 0.0
2017-Nov-18 11:30N 30°05' W 093°20'0 0.0
2017-Nov-18 11:00N 30°05' W 093°20'0 0.0
2017-Nov-18 10:30N 30°05' W 093°20'0 0.0
2017-Nov-18 10:00N 30°05' W 093°20'0 0.0
2017-Nov-18 09:30N 30°05' W 093°20'0 0.0
2017-Nov-18 09:00N 30°05' W 093°20'0 0.0
2017-Nov-18 08:30N 30°05' W 093°20'0 0.0
2017-Nov-18 08:00N 30°05' W 093°20'0 0.0
2017-Nov-18 07:30N 30°05' W 093°20'0 0.0
2017-Nov-18 07:00N 30°05' W 093°20'0 0.0
2017-Nov-18 06:30N 30°05' W 093°20'0 0.0
2017-Nov-18 06:00N 30°05' W 093°20'0 0.0
2017-Nov-18 05:30N 30°05' W 093°20'0 0.0
2017-Nov-18 05:00N 30°05' W 093°20'0 0.0
2017-Nov-18 04:30N 30°05' W 093°20'0 0.0
2017-Nov-18 04:00N 30°05' W 093°20'0 0.0
2017-Nov-18 03:30N 30°05' W 093°20'0 0.0
2017-Nov-18 03:00N 30°05' W 093°20'0 0.0
2017-Nov-18 02:30N 30°05' W 093°20'0 0.0
2017-Nov-18 02:00N 30°05' W 093°20'0 0.0
2017-Nov-18 01:30N 30°05' W 093°20'0 0.0
2017-Nov-18 01:00N 30°05' W 093°20'0 0.0
2017-Nov-18 00:30N 30°05' W 093°20'0 0.0
2017-Nov-18 00:00N 30°05' W 093°20'0 0.0
2017-Nov-17 23:30N 30°05' W 093°20'0 0.0
2017-Nov-17 23:00N 30°05' W 093°20'0 0.6
2017-Nov-17 22:30N 30°05' W 093°20'0 0.0
2017-Nov-17 22:00N 30°05' W 093°20'0 0.6
2017-Nov-17 21:30N 30°05' W 093°20'0 0.0
2017-Nov-17 21:00N 30°05' W 093°20'0 0.0
2017-Nov-17 20:30N 30°05' W 093°20'0 0.0
2017-Nov-17 20:00N 30°05' W 093°20'0 0.0
2017-Nov-17 19:30N 30°05' W 093°20'0 0.0
2017-Nov-17 19:00N 30°05' W 093°20'0 0.0
2017-Nov-17 18:30N 30°05' W 093°20'0 0.0
2017-Nov-17 18:00N 30°05' W 093°20'0 0.0
2017-Nov-17 17:30N 30°05' W 093°20'0 0.0
2017-Nov-17 17:00N 30°05' W 093°20'0 0.0
2017-Nov-17 16:30N 30°05' W 093°20'0 0.0
2017-Nov-17 16:00N 30°05' W 093°20'0 0.0
2017-Nov-17 15:30N 30°05' W 093°20'0 0.0
2017-Nov-17 15:00N 30°05' W 093°20'0 0.0
2017-Nov-17 14:30N 30°05' W 093°20'0 0.0
2017-Nov-17 14:00N 30°05' W 093°20'0 0.0
2017-Nov-17 13:30N 30°05' W 093°20'0 0.0
2017-Nov-17 13:00N 30°05' W 093°20'0 0.0
2017-Nov-17 12:30N 30°05' W 093°20'0 0.0
2017-Nov-17 12:00N 30°05' W 093°20'0 0.0
2017-Nov-17 11:30N 30°05' W 093°20'0 0.0
2017-Nov-17 11:00N 30°05' W 093°20'0 0.0
2017-Nov-17 10:30N 30°05' W 093°20'0 0.0
2017-Nov-17 10:00N 30°05' W 093°20'0 0.0
2017-Nov-17 09:30N 30°05' W 093°20'0 0.0
2017-Nov-17 09:00N 30°05' W 093°20'0 0.0
2017-Nov-17 08:30N 30°05' W 093°20'0 0.0
2017-Nov-17 08:00N 30°05' W 093°20'0 0.0
2017-Nov-17 07:30N 30°05' W 093°20'0 0.0
2017-Nov-17 07:00N 30°05' W 093°20'0 0.0
2017-Nov-17 06:30N 30°05' W 093°20'0 0.0
2017-Nov-17 06:00N 30°05' W 093°20'0 0.0
2017-Nov-17 05:30N 30°05' W 093°20'0 0.0
2017-Nov-17 05:00N 30°05' W 093°20'0 0.0
2017-Nov-17 04:30N 30°05' W 093°20'0 0.0
2017-Nov-17 04:00N 30°05' W 093°20'0 0.0
2017-Nov-17 03:30N 30°05' W 093°20'0 0.0
2017-Nov-17 03:00N 30°05' W 093°20'0 0.0
2017-Nov-17 02:30N 30°05' W 093°20'0 0.0
2017-Nov-17 02:00N 30°05' W 093°20'0 0.0
2017-Nov-17 01:30N 30°05' W 093°20'0 0.0
2017-Nov-17 01:00N 30°05' W 093°20'0 0.0
2017-Nov-17 00:30N 30°05' W 093°20'0 0.0
2017-Nov-17 00:00N 30°05' W 093°20'0 0.0
2017-Nov-16 23:30N 30°05' W 093°20'0 0.0
2017-Nov-16 23:00N 30°05' W 093°20'0 0.0
2017-Nov-16 22:30N 30°05' W 093°20'0 0.0
2017-Nov-16 22:00N 30°05' W 093°20'0 0.0
2017-Nov-16 21:30N 30°05' W 093°20'0 0.0
2017-Nov-16 21:00N 30°05' W 093°20'0 0.0
2017-Nov-16 20:30N 30°05' W 093°20'0 0.0
2017-Nov-16 20:00N 30°05' W 093°20'0 0.0
2017-Nov-16 19:30N 30°05' W 093°20'0 0.0
2017-Nov-16 19:00N 30°05' W 093°20'0 0.0
2017-Nov-16 18:30N 30°05' W 093°20'0 0.0
2017-Nov-16 18:00N 30°05' W 093°20'0 0.0
2017-Nov-16 17:30N 30°05' W 093°20'0 0.0
2017-Nov-16 17:00N 30°05' W 093°20'0 0.0
2017-Nov-16 16:30N 30°05' W 093°20'0 0.0
2017-Nov-16 16:00N 30°05' W 093°20'0 0.0
2017-Nov-16 15:30N 30°05' W 093°20'0 0.0
2017-Nov-16 15:00N 30°05' W 093°20'0 0.0
2017-Nov-16 14:30N 30°05' W 093°20'0 0.0
2017-Nov-16 14:00N 30°05' W 093°20'0 0.0
2017-Nov-16 13:30N 30°05' W 093°20'0 0.0
2017-Nov-16 13:00N 30°05' W 093°20'0 0.0
2017-Nov-16 12:30N 30°05' W 093°20'0 0.0
2017-Nov-16 12:00N 30°05' W 093°20'0 0.0
2017-Nov-16 11:30N 30°05' W 093°20'0 0.0
2017-Nov-16 11:00N 30°05' W 093°20'0 0.0
2017-Nov-16 10:30N 30°05' W 093°20'0 0.0
2017-Nov-16 10:00N 30°05' W 093°20'0 0.0
2017-Nov-16 09:30N 30°05' W 093°20'0 0.0
2017-Nov-16 09:00N 30°05' W 093°20'0 0.0
2017-Nov-16 08:30N 30°05' W 093°20'0 0.0
2017-Nov-16 08:00N 30°05' W 093°20'0 0.0
2017-Nov-16 07:30N 30°05' W 093°20'0 0.0
2017-Nov-16 07:00N 30°05' W 093°20'0 0.0
2017-Nov-16 06:30N 30°05' W 093°20'0 0.0
2017-Nov-16 06:00N 30°05' W 093°20'0 0.0
2017-Nov-16 05:30N 30°05' W 093°20'0 0.0
2017-Nov-16 05:00N 30°05' W 093°20'0 0.5
2017-Nov-16 04:30N 30°05' W 093°20'0 0.5
2017-Nov-16 04:00N 30°05' W 093°20'0 0.1
2017-Nov-16 03:30N 30°05' W 093°20'0 0.0
2017-Nov-16 03:00N 30°05' W 093°20'0 0.0
2017-Nov-16 02:30N 30°05' W 093°20'0 0.0
2017-Nov-16 02:00N 30°05' W 093°20'0 0.0
2017-Nov-16 01:30N 30°05' W 093°20'0 0.0
2017-Nov-16 01:00N 30°05' W 093°20'0 0.0
2017-Nov-16 00:30N 30°05' W 093°20'1 2.7
2017-Nov-16 00:00N 30°06' W 093°19'0 0.6
2017-Nov-15 23:30N 30°06' W 093°19'0 0.1
2017-Nov-15 23:00N 30°06' W 093°19'2 3.8
2017-Nov-15 22:30N 30°05' W 093°20'2 3.5
2017-Nov-15 22:00N 30°04' W 093°22'2 4.2
2017-Nov-15 21:30N 30°04' W 093°24'1 1.7
2017-Nov-15 21:00N 30°04' W 093°25'2 3.1
2017-Nov-15 20:30N 30°04' W 093°27'2 4.7
2017-Nov-15 20:00N 30°04' W 093°30'3 5.1
2017-Nov-15 19:30N 30°04' W 093°33'3 5.2
2017-Nov-15 18:59N 30°04' W 093°36'3 4.9
2017-Nov-15 18:28N 30°04' W 093°39'12 4.7
2017-Nov-15 15:49N 29°58' W 093°51'2 4.2
2017-Nov-15 15:25N 29°56' W 093°52'  
2017-Nov-13 01:04N 30°00' W 093°14'0 5.7
2017-Nov-13 00:59N 30°00' W 093°14'4 6.1
2017-Nov-13 00:15N 29°57' W 093°10'1 3.5
2017-Nov-12 23:59N 29°56' W 093°09'3 4.8
2017-Nov-12 23:25N 29°56' W 093°06'39 5.8
2017-Nov-12 16:45N 29°51' W 092°22'1 5.3
2017-Nov-12 16:30N 29°51' W 092°20'3 5.8
2017-Nov-12 16:00N 29°49' W 092°17'3 5.8
2017-Nov-12 15:30N 29°48' W 092°14'2 4.9
2017-Nov-12 15:00N 29°47' W 092°12'1 1.3
2017-Nov-12 14:28N 29°47' W 092°11'0 0.0
2017-Nov-12 13:56N 29°47' W 092°11'0 0.0
2017-Nov-12 13:28N 29°47' W 092°11'0 0.0
2017-Nov-12 13:00N 29°47' W 092°11'0 0.0
2017-Nov-12 12:30N 29°47' W 092°11'0 0.0
2017-Nov-12 11:54N 29°47' W 092°11'0 0.1
2017-Nov-12 10:43N 29°47' W 092°11'1 5.3
2017-Nov-12 10:29N 29°47' W 092°10'3 6.0
2017-Nov-12 09:59N 29°48' W 092°06'3 5.9
2017-Nov-12 09:29N 29°49' W 092°03'3 6.2
2017-Nov-12 08:59N 29°50' W 091°60'57 3.5
2017-Nov-11 16:40N 29°34' W 090°56'2 6.4
2017-Nov-11 16:19N 29°33' W 090°54'3 6.3
2017-Nov-11 15:50N 29°32' W 090°50'2 6.5
2017-Nov-11 15:30N 29°32' W 090°48'3 5.3
2017-Nov-11 15:00N 29°33' W 090°45'2 4.5
2017-Nov-11 14:30N 29°35' W 090°43'2 4.1
2017-Nov-11 14:00N 29°37' W 090°42'2 4.5
2017-Nov-11 13:30N 29°36' W 090°40'2 3.6
2017-Nov-11 13:00N 29°35' W 090°38'2 4.2
2017-Nov-11 12:30N 29°35' W 090°36'3 6.1
2017-Nov-11 12:00N 29°34' W 090°32'3 6.4
2017-Nov-11 11:30N 29°34' W 090°29'  

Dump ship's entire track history